createdAt,value
2022-09-18T00:04:57.844Z,11.1
2022-09-18T00:14:57.729Z,11.3
2022-09-18T00:24:57.836Z,11.1
2022-09-18T00:34:57.694Z,11.1
2022-09-18T00:39:57.788Z,11.1
2022-09-18T00:49:57.838Z,11.1
2022-09-18T00:59:57.721Z,11.2
2022-09-18T01:09:57.845Z,11.1
2022-09-18T01:19:57.706Z,11.2
2022-09-18T01:24:57.713Z,11.1
2022-09-18T01:29:57.854Z,11.1
2022-09-18T01:39:57.801Z,11.3
2022-09-18T01:44:57.724Z,11.2
2022-09-18T01:54:57.843Z,11.2
2022-09-18T02:04:57.734Z,11.2
2022-09-18T02:14:57.844Z,11.2
2022-09-18T02:24:57.730Z,11.3
2022-09-18T02:29:57.869Z,11.2
2022-09-18T02:39:57.892Z,11.2
2022-09-18T02:44:57.727Z,11.2
2022-09-18T02:54:57.728Z,11.1
2022-09-18T02:59:57.848Z,11.1
2022-09-18T03:09:57.729Z,11.3
2022-09-18T03:14:57.730Z,11.2
2022-09-18T03:24:57.857Z,11.2
2022-09-18T03:34:57.722Z,11.1
2022-09-18T03:39:57.818Z,11.1
2022-09-18T03:49:57.867Z,11.3
2022-09-18T03:59:57.732Z,11.2
2022-09-18T04:04:57.761Z,11.3
2022-09-18T04:09:57.861Z,11.2
2022-09-18T04:19:57.740Z,11.2
2022-09-18T04:24:57.750Z,11.2
2022-09-18T04:34:57.771Z,11.4
2022-09-18T04:39:57.847Z,11.3
2022-09-18T04:49:57.760Z,11.3
2022-09-18T04:59:57.885Z,11.2
2022-09-18T05:09:57.757Z,11.2
2022-09-18T05:19:57.874Z,11.3
2022-09-18T05:24:57.775Z,11.3
2022-09-18T05:34:57.763Z,11.3
2022-09-18T05:39:58.001Z,11.3
2022-09-18T05:49:57.786Z,11.3
2022-09-18T05:59:57.899Z,11.3
2022-09-18T06:09:57.768Z,11.3
2022-09-18T06:19:57.916Z,11.2
2022-09-18T06:29:57.784Z,11.3
2022-09-18T06:34:57.784Z,11.3
2022-09-18T06:44:57.907Z,11.4
2022-09-18T06:54:57.772Z,11.4
2022-09-18T06:59:57.800Z,11.4
2022-09-18T07:09:57.915Z,11.4
2022-09-18T07:19:57.779Z,11.4
2022-09-18T07:24:57.781Z,11.4
2022-09-18T07:34:57.901Z,11.4
2022-09-18T07:44:58.048Z,11.3
2022-09-18T07:49:57.788Z,11.3
2022-09-18T07:54:58.073Z,11.4
2022-09-18T07:59:58.040Z,11.4
2022-09-18T08:04:57.793Z,11.4
2022-09-18T08:09:57.806Z,11.3
2022-09-18T08:19:57.917Z,11.4
2022-09-18T08:29:57.800Z,11.4
2022-09-18T08:39:57.965Z,11.5
2022-09-18T08:49:57.824Z,11.4
2022-09-18T08:59:57.918Z,11.5
2022-09-18T09:09:57.811Z,11.4
2022-09-18T09:19:57.932Z,11.3
2022-09-18T09:24:57.806Z,11.4
2022-09-18T09:34:57.791Z,11.3
2022-09-18T09:39:57.945Z,11.5
2022-09-18T09:44:57.810Z,11.4
2022-09-18T09:49:57.836Z,11.4
2022-09-18T09:54:57.810Z,11.3
2022-09-18T09:59:57.977Z,11.3
2022-09-18T10:04:57.815Z,11.3
2022-09-18T10:14:57.818Z,11.4
2022-09-18T10:24:57.937Z,11.4
2022-09-18T10:34:57.800Z,11.3
2022-09-18T10:39:57.908Z,11.4
2022-09-18T10:45:01.629Z,11.4
2022-09-18T10:49:57.818Z,11.4
2022-09-18T10:54:57.844Z,11.4
2022-09-18T11:04:57.960Z,11.4
2022-09-18T11:14:57.841Z,11.5
2022-09-18T11:24:57.967Z,11.4
2022-09-18T11:34:57.852Z,11.4
2022-09-18T11:44:57.962Z,11.3
2022-09-18T11:49:57.870Z,11.4
2022-09-18T11:59:57.843Z,11.4
2022-09-18T12:09:56.640Z,11.4
2022-09-18T12:19:56.492Z,11.4
2022-09-18T12:24:56.483Z,11.4
2022-09-18T12:34:56.595Z,11.5
2022-09-18T12:39:57.170Z,11.4
2022-09-18T12:49:57.144Z,11.3
2022-09-18T12:59:57.251Z,11.4
2022-09-18T13:09:57.112Z,11.3
2022-09-18T13:14:57.135Z,11.5
2022-09-18T13:24:57.959Z,11.5
2022-09-18T13:29:57.849Z,11.4
2022-09-18T13:34:57.934Z,11.3
2022-09-18T13:44:57.946Z,11.3
2022-09-18T13:49:57.834Z,11.2
2022-09-18T13:59:57.812Z,11.5
2022-09-18T14:04:58.046Z,11.4
2022-09-18T14:10:01.840Z,11.4
2022-09-18T14:19:57.875Z,11.3
2022-09-18T14:29:58.038Z,11.2
2022-09-18T14:39:58.008Z,11.4
2022-09-18T14:49:58.017Z,11.5
2022-09-18T14:54:57.841Z,11.4
2022-09-18T15:04:57.826Z,11.4
2022-09-18T15:09:57.958Z,11.3
2022-09-18T15:14:57.852Z,11.3
2022-09-18T15:24:57.855Z,11.5
2022-09-18T15:34:57.978Z,11.5
2022-09-18T15:39:57.905Z,11.3
2022-09-18T15:49:57.877Z,11.3
2022-09-18T15:54:58.007Z,11.5
2022-09-18T16:04:57.888Z,11.3
2022-09-18T16:14:57.994Z,11.6
2022-09-18T16:19:57.871Z,11.5
2022-09-18T16:24:57.892Z,11.3
2022-09-18T16:29:57.884Z,11.6
2022-09-18T16:34:58.013Z,11.5
2022-09-18T16:44:57.889Z,11.4
2022-09-18T16:54:58.023Z,11.4
2022-09-18T17:04:57.895Z,11.4
2022-09-18T17:14:58.063Z,11.3
2022-09-18T17:24:57.892Z,11.3
2022-09-18T17:29:57.907Z,11.4
2022-09-18T17:39:58.111Z,11.6
2022-09-18T17:44:57.889Z,11.4
2022-09-18T17:54:57.928Z,11.3
2022-09-18T18:04:58.030Z,11.2
2022-09-18T18:14:57.892Z,11.2
2022-09-18T18:19:57.907Z,11.3
2022-09-18T18:29:58.038Z,11.2
2022-09-18T18:39:57.962Z,11.1
2022-09-18T18:44:57.911Z,11.1
2022-09-18T18:54:57.948Z,11.1
2022-09-18T19:04:57.934Z,11.2
2022-09-18T19:14:58.035Z,11.1
2022-09-18T19:24:57.904Z,11.1
2022-09-18T19:29:57.922Z,11.1
2022-09-18T19:39:58.077Z,11.1
2022-09-18T19:44:57.927Z,11.2
2022-09-18T19:54:57.916Z,11.2
2022-09-18T19:59:58.047Z,11.2
2022-09-18T20:09:57.912Z,11.2
2022-09-18T20:14:57.912Z,11.1
2022-09-18T20:19:58.050Z,11.2
2022-09-18T20:29:57.927Z,11.2
2022-09-18T20:39:58.084Z,11.2
2022-09-18T20:49:57.917Z,11.1
2022-09-18T20:59:58.050Z,11.1
2022-09-18T21:09:58.341Z,11.1
2022-09-18T21:19:58.046Z,11.1
2022-09-18T21:29:57.920Z,11
2022-09-18T21:39:58.023Z,11
2022-09-18T21:44:57.946Z,10.9
2022-09-18T21:54:57.946Z,11
2022-09-18T22:04:58.067Z,10.8
2022-09-18T22:09:57.946Z,10.9
2022-09-18T22:19:57.934Z,10.8
2022-09-18T22:24:58.063Z,10.7
2022-09-18T22:34:57.930Z,10.8
2022-09-18T22:39:57.980Z,10.7
2022-09-18T22:49:57.967Z,10.8
2022-09-18T22:54:57.950Z,10.8
2022-09-18T23:04:58.083Z,10.6
2022-09-18T23:14:58.064Z,10.7
2022-09-18T23:19:57.946Z,10.8
2022-09-18T23:29:57.942Z,10.7
2022-09-18T23:39:58.031Z,10.6
2022-09-18T23:49:57.952Z,10.6
2022-09-18T23:59:58.081Z,10.6
